createdAt,value
2022-08-10T00:01:54.404Z,88.10
2022-08-10T00:04:23.462Z,88.20
2022-08-10T00:06:54.727Z,88.40
2022-08-10T00:09:23.371Z,88.30
2022-08-10T00:11:50.659Z,88.40
2022-08-10T00:14:17.851Z,88.50
2022-08-10T00:16:44.705Z,88.60
2022-08-10T00:19:11.508Z,88.70
2022-08-10T00:21:38.359Z,88.80
2022-08-10T00:24:05.285Z,88.70
2022-08-10T00:27:53.034Z,89.00
2022-08-10T00:29:19.211Z,89.00
2022-08-10T00:31:58.225Z,89.00
2022-08-10T00:34:28.285Z,89.00
2022-08-10T00:36:55.542Z,89.10
2022-08-10T00:39:22.602Z,89.20
2022-08-10T00:42:02.282Z,89.20
2022-08-10T00:44:38.594Z,89.30
2022-08-10T00:47:06.712Z,89.40
2022-08-10T00:49:33.871Z,89.60
2022-08-10T00:52:01.700Z,89.60
2022-08-10T00:54:29.395Z,89.70
2022-08-10T00:57:16.205Z,89.80
2022-08-10T00:59:57.886Z,89.80
2022-08-10T01:02:30.792Z,89.90
2022-08-10T01:05:01.959Z,89.90
2022-08-10T01:07:59.164Z,90.00
2022-08-10T01:10:53.601Z,90.00
2022-08-10T01:13:20.360Z,90.00
2022-08-10T01:16:05.425Z,90.00
2022-08-10T01:19:23.524Z,90.10
2022-08-10T01:22:04.040Z,90.10
2022-08-10T01:24:52.517Z,90.10
2022-08-10T01:27:36.081Z,90.10
2022-08-10T01:30:08.752Z,90.10
2022-08-10T01:32:38.366Z,90.10
2022-08-10T01:35:39.241Z,90.10
2022-08-10T01:38:14.669Z,90.10
2022-08-10T01:40:48.996Z,90.20
2022-08-10T01:43:19.437Z,90.20
2022-08-10T01:45:51.336Z,90.20
2022-08-10T01:48:33.682Z,90.20
2022-08-10T01:51:07.739Z,90.20
2022-08-10T01:53:43.146Z,90.20
2022-08-10T01:56:13.412Z,90.20
2022-08-10T01:58:42.295Z,90.30
2022-08-10T02:01:16.990Z,90.30
2022-08-10T02:04:03.764Z,90.30
2022-08-10T02:06:36.644Z,90.30
2022-08-10T02:09:07.094Z,90.30
2022-08-10T02:12:05.338Z,90.40
2022-08-10T02:14:33.384Z,90.40
2022-08-10T02:17:05.429Z,90.40
2022-08-10T02:19:34.748Z,90.40
2022-08-10T02:22:36.818Z,90.50
2022-08-10T02:24:51.259Z,90.50
2022-08-10T02:27:21.361Z,90.50
2022-08-10T02:29:49.547Z,90.50
2022-08-10T02:32:24.519Z,90.60
2022-08-10T02:35:08.653Z,90.60
2022-08-10T02:37:48.588Z,90.60
2022-08-10T02:45:02.153Z,90.60
2022-08-10T02:45:19.193Z,90.60
2022-08-10T02:46:05.294Z,90.60
2022-08-10T02:48:42.528Z,90.60
2022-08-10T02:51:18.507Z,90.70
2022-08-10T02:53:55.908Z,90.70
2022-08-10T02:56:42.038Z,90.70
2022-08-10T02:59:15.158Z,90.80
2022-08-10T03:01:47.691Z,90.80
2022-08-10T03:04:55.792Z,90.80
2022-08-10T03:07:20.178Z,90.80
2022-08-10T03:10:13.376Z,90.80
2022-08-10T03:12:43.103Z,90.80
2022-08-10T03:15:16.007Z,90.90
2022-08-10T03:17:58.044Z,91.00
2022-08-10T03:20:36.908Z,91.10
2022-08-10T03:23:16.387Z,91.10
2022-08-10T03:25:52.655Z,91.20
2022-08-10T03:28:30.263Z,91.20
2022-08-10T03:31:00.136Z,91.20
2022-08-10T03:33:33.958Z,91.20
2022-08-10T03:36:44.039Z,91.30
2022-08-10T03:38:51.645Z,91.30
2022-08-10T03:41:36.624Z,91.30
2022-08-10T03:44:06.102Z,91.40
2022-08-10T03:46:39.822Z,91.40
2022-08-10T03:49:08.261Z,91.40
2022-08-10T03:51:36.726Z,91.50
2022-08-10T03:54:07.241Z,91.50
2022-08-10T03:56:38.979Z,91.60
2022-08-10T03:59:11.589Z,91.50
2022-08-10T04:02:44.919Z,91.60
2022-08-10T04:04:26.309Z,91.60
2022-08-10T04:06:56.018Z,91.60
2022-08-10T04:09:53.620Z,91.70
2022-08-10T04:12:17.961Z,91.70
2022-08-10T04:14:50.623Z,91.70
2022-08-10T04:17:57.478Z,91.70
2022-08-10T04:20:34.956Z,91.60
2022-08-10T04:23:06.574Z,91.60
2022-08-10T04:25:34.343Z,91.60
2022-08-10T04:28:03.180Z,91.60
2022-08-10T04:30:32.053Z,91.50
2022-08-10T04:33:02.231Z,91.50
2022-08-10T04:35:29.952Z,91.50
2022-08-10T04:37:58.208Z,91.40
2022-08-10T04:40:30.507Z,91.40
2022-08-10T04:43:02.152Z,91.40
2022-08-10T04:45:50.422Z,91.30
2022-08-10T04:48:41.075Z,91.30
2022-08-10T04:51:05.340Z,91.20
2022-08-10T04:53:32.414Z,91.20
2022-08-10T04:55:59.319Z,91.10
2022-08-10T04:58:26.148Z,91.10
2022-08-10T05:00:53.004Z,91.10
2022-08-10T05:03:19.846Z,91.00
2022-08-10T05:05:46.730Z,91.00
2022-08-10T05:08:15.610Z,90.90
2022-08-10T05:10:42.566Z,90.80
2022-08-10T05:13:09.500Z,90.70
2022-08-10T05:15:36.520Z,90.60
2022-08-10T05:18:09.379Z,90.50
2022-08-10T05:20:38.942Z,90.40
2022-08-10T05:23:05.829Z,90.40
2022-08-10T05:25:37.528Z,90.30
2022-08-10T05:28:06.866Z,90.30
2022-08-10T05:30:34.279Z,90.20
2022-08-10T05:33:05.148Z,90.20
2022-08-10T05:35:52.417Z,90.20
2022-08-10T05:38:26.067Z,90.10
2022-08-10T05:40:53.867Z,90.00
2022-08-10T05:43:21.775Z,90.00
2022-08-10T05:46:16.756Z,90.00
2022-08-10T05:48:41.801Z,89.70
2022-08-10T05:51:25.937Z,89.50
2022-08-10T05:54:03.164Z,89.10
2022-08-10T05:56:53.950Z,89.20
2022-08-10T06:00:34.143Z,89.10
2022-08-10T06:02:31.214Z,88.70
2022-08-10T06:05:04.954Z,88.50
2022-08-10T06:07:33.254Z,88.50
2022-08-10T06:10:02.142Z,88.30
2022-08-10T06:12:31.374Z,88.20
2022-08-10T06:15:06.028Z,88.20
2022-08-10T06:17:38.425Z,88.20
2022-08-10T06:20:06.067Z,87.80
2022-08-10T06:22:33.502Z,87.90
2022-08-10T06:25:37.800Z,87.90
2022-08-10T06:27:51.995Z,87.90
2022-08-10T06:30:19.974Z,88.00
2022-08-10T06:32:49.850Z,87.90
2022-08-10T06:35:17.513Z,87.80
2022-08-10T06:37:51.891Z,87.90
2022-08-10T06:40:20.076Z,87.60
2022-08-10T06:42:50.013Z,87.20
2022-08-10T06:45:27.516Z,86.90
2022-08-10T06:48:28.399Z,87.10
2022-08-10T06:51:00.252Z,87.10
2022-08-10T06:53:53.305Z,86.60
2022-08-10T06:56:36.175Z,86.20
2022-08-10T06:59:27.701Z,86.00
2022-08-10T07:02:05.580Z,85.80
2022-08-10T07:05:03.970Z,85.70
2022-08-10T07:07:35.791Z,85.70
2022-08-10T07:10:02.708Z,85.40
2022-08-10T07:12:31.734Z,85.40
2022-08-10T07:14:59.998Z,85.50
2022-08-10T07:17:30.744Z,85.70
2022-08-10T07:20:00.676Z,85.50
2022-08-10T07:23:08.708Z,85.40
2022-08-10T07:25:37.473Z,85.20
2022-08-10T07:28:05.472Z,84.80
2022-08-10T07:30:37.321Z,84.80
2022-08-10T07:33:06.086Z,84.60
2022-08-10T07:35:42.714Z,84.50
2022-08-10T07:38:15.968Z,84.60
2022-08-10T07:40:44.134Z,84.30
2022-08-10T07:43:12.723Z,84.40
2022-08-10T07:45:40.625Z,84.20
2022-08-10T07:48:15.041Z,84.20
2022-08-10T07:50:44.575Z,83.80
2022-08-10T07:53:17.668Z,84.00
2022-08-10T07:56:05.737Z,83.30
2022-08-10T07:58:52.376Z,83.10
2022-08-10T08:01:23.097Z,83.10
2022-08-10T08:04:10.840Z,83.20
2022-08-10T08:06:39.671Z,83.00
2022-08-10T08:09:07.024Z,82.30
2022-08-10T08:11:34.684Z,81.80
2022-08-10T08:14:04.043Z,81.50
2022-08-10T08:16:32.144Z,80.80
2022-08-10T08:19:26.300Z,80.70
2022-08-10T08:24:05.690Z,78.90
2022-08-10T08:24:38.120Z,78.60
2022-08-10T08:27:07.677Z,77.70
2022-08-10T08:29:39.180Z,77.50
2022-08-10T08:32:07.077Z,78.80
2022-08-10T08:34:38.793Z,79.10
2022-08-10T08:37:07.214Z,79.20
2022-08-10T08:39:36.062Z,77.30
2022-08-10T08:42:27.878Z,76.10
2022-08-10T08:45:10.971Z,76.50
2022-08-10T08:48:06.460Z,76.00
2022-08-10T08:52:07.115Z,73.80
2022-08-10T08:54:08.890Z,74.30
2022-08-10T08:56:54.149Z,74.10
2022-08-10T08:59:48.511Z,74.70
2022-08-10T09:02:31.323Z,73.30
2022-08-10T09:05:23.456Z,72.10
2022-08-10T09:08:22.061Z,71.10
2022-08-10T09:11:01.983Z,71.20
2022-08-10T09:13:40.065Z,69.60
2022-08-10T09:16:32.424Z,69.50
2022-08-10T09:19:36.461Z,69.30
2022-08-10T09:22:18.169Z,68.30
2022-08-10T09:25:21.618Z,67.50
2022-08-10T09:27:56.704Z,67.70
2022-08-10T09:30:35.737Z,68.00
2022-08-10T09:36:19.324Z,66.20
2022-08-10T09:36:33.127Z,65.80
2022-08-10T09:40:56.082Z,65.90
2022-08-10T09:42:29.171Z,65.50
2022-08-10T09:45:19.789Z,65.70
2022-08-10T09:48:05.094Z,65.80
2022-08-10T09:51:22.413Z,65.10
2022-08-10T09:53:42.963Z,64.70
2022-08-10T09:56:19.383Z,64.40
2022-08-10T09:59:59.228Z,64.40
2022-08-10T10:02:03.675Z,64.00
2022-08-10T10:04:49.480Z,63.50
2022-08-10T10:07:25.777Z,63.70
2022-08-10T10:10:15.753Z,62.80
2022-08-10T10:13:10.179Z,63.40
2022-08-10T10:15:52.905Z,63.30
2022-08-10T10:18:31.586Z,63.40
2022-08-10T10:20:58.365Z,63.30
2022-08-10T10:23:35.649Z,62.90
2022-08-10T10:26:18.327Z,63.10
2022-08-10T10:32:18.907Z,62.60
2022-08-10T10:34:45.655Z,61.90
2022-08-10T10:37:13.343Z,62.10
2022-08-10T10:39:43.486Z,62.40
2022-08-10T10:42:49.682Z,61.60
2022-08-10T10:45:24.186Z,61.70
2022-08-10T10:48:29.296Z,62.80
2022-08-10T10:51:29.143Z,63.20
2022-08-10T10:54:04.801Z,61.90
2022-08-10T10:56:34.336Z,62.30
2022-08-10T10:59:55.714Z,61.60
2022-08-10T11:02:23.857Z,61.60
2022-08-10T11:05:19.600Z,61.40
2022-08-10T11:08:02.961Z,61.20
2022-08-10T11:10:46.259Z,61.80
2022-08-10T11:14:27.175Z,61.60
2022-08-10T11:16:27.952Z,62.30
2022-08-10T11:19:15.798Z,60.70
2022-08-10T11:22:13.381Z,61.40
2022-08-10T11:25:40.266Z,61.60
2022-08-10T11:28:46.437Z,60.80
2022-08-10T11:31:34.067Z,61.40
2022-08-10T11:34:46.990Z,61.00
2022-08-10T11:37:29.188Z,60.60
2022-08-10T11:40:28.180Z,61.10
2022-08-10T11:43:10.085Z,61.10
2022-08-10T11:45:54.213Z,61.50
2022-08-10T11:48:53.150Z,61.70
2022-08-10T11:51:30.021Z,60.60
2022-08-10T11:54:13.530Z,60.60
2022-08-10T11:57:02.386Z,60.90
2022-08-10T11:59:57.876Z,61.00
2022-08-10T12:02:40.745Z,60.50
2022-08-10T12:05:24.115Z,60.50
2022-08-10T12:10:07.324Z,59.40
2022-08-10T12:10:59.859Z,60.00
2022-08-10T12:13:37.480Z,59.20
2022-08-10T12:16:09.148Z,60.20
2022-08-10T12:19:02.014Z,59.80
2022-08-10T12:21:32.731Z,60.00
2022-08-10T12:24:38.024Z,60.20
2022-08-10T12:27:13.337Z,59.60
2022-08-10T12:29:58.870Z,60.20
2022-08-10T12:32:34.747Z,60.20
2022-08-10T12:35:26.798Z,60.30
2022-08-10T12:38:35.770Z,60.40
2022-08-10T12:41:07.626Z,60.40
2022-08-10T12:44:17.298Z,60.20
2022-08-10T12:46:50.995Z,59.60
2022-08-10T12:49:30.488Z,59.60
2022-08-10T12:52:19.448Z,59.90
2022-08-10T12:54:47.803Z,60.20
2022-08-10T12:57:21.309Z,59.00
2022-08-10T12:59:57.049Z,59.10
2022-08-10T13:02:28.420Z,58.60
2022-08-10T13:04:58.119Z,58.40
2022-08-10T13:08:25.730Z,59.20
2022-08-10T13:10:23.118Z,59.40
2022-08-10T13:12:54.319Z,58.10
2022-08-10T13:15:45.767Z,58.20
2022-08-10T13:18:18.487Z,58.60
2022-08-10T13:20:51.537Z,57.00
2022-08-10T13:23:21.644Z,57.80
2022-08-10T13:25:51.999Z,57.80
2022-08-10T13:28:36.128Z,59.10
2022-08-10T13:31:16.394Z,58.80
2022-08-10T13:34:40.260Z,59.30
2022-08-10T13:36:42.565Z,57.90
2022-08-10T13:39:12.170Z,58.30
2022-08-10T13:41:42.396Z,57.10
2022-08-10T13:44:13.140Z,56.70
2022-08-10T13:46:42.231Z,57.60
2022-08-10T13:49:11.271Z,57.50
2022-08-10T13:51:56.575Z,59.00
2022-08-10T13:54:36.218Z,58.50
2022-08-10T13:57:04.689Z,56.90
2022-08-10T14:00:34.287Z,56.90
2022-08-10T14:02:42.079Z,56.50
2022-08-10T14:05:09.904Z,58.40
2022-08-10T14:08:00.525Z,60.30
2022-08-10T14:11:04.098Z,58.90
2022-08-10T14:13:23.396Z,59.70
2022-08-10T14:15:50.797Z,57.80
2022-08-10T14:18:18.768Z,56.60
2022-08-10T14:20:47.973Z,56.70
2022-08-10T14:23:15.413Z,56.60
2022-08-10T14:25:59.835Z,55.30
2022-08-10T14:28:42.794Z,56.80
2022-08-10T14:31:13.480Z,55.20
2022-08-10T14:33:47.095Z,57.80
2022-08-10T14:36:24.614Z,55.90
2022-08-10T14:38:54.022Z,56.90
2022-08-10T14:42:03.365Z,55.70
2022-08-10T14:44:20.997Z,57.40
2022-08-10T14:46:55.807Z,56.40
2022-08-10T14:49:25.959Z,55.70
2022-08-10T14:52:00.068Z,56.50
2022-08-10T14:54:29.854Z,56.20
2022-08-10T14:57:10.864Z,57.70
2022-08-10T15:00:26.237Z,55.00
2022-08-10T15:02:40.923Z,55.50
2022-08-10T15:05:22.744Z,57.40
2022-08-10T15:07:58.955Z,55.30
2022-08-10T15:10:28.103Z,54.90
2022-08-10T15:12:58.671Z,55.40
2022-08-10T15:15:28.878Z,56.50
2022-08-10T15:17:58.716Z,55.60
2022-08-10T15:20:28.668Z,55.80
2022-08-10T15:23:29.844Z,54.70
2022-08-10T15:26:00.718Z,54.90
2022-08-10T15:29:01.903Z,54.30
2022-08-10T15:31:22.407Z,54.50
2022-08-10T15:34:10.424Z,54.90
2022-08-10T15:37:39.302Z,55.40
2022-08-10T15:40:21.477Z,53.70
2022-08-10T15:42:52.281Z,52.20
2022-08-10T15:45:19.623Z,51.00
2022-08-10T15:47:52.885Z,50.70
2022-08-10T15:50:40.889Z,50.20
2022-08-10T15:53:16.106Z,50.50
2022-08-10T15:55:58.700Z,51.40
2022-08-10T15:58:54.862Z,50.60
2022-08-10T16:02:13.111Z,52.90
2022-08-10T16:04:32.179Z,50.50
2022-08-10T16:07:07.959Z,51.30
2022-08-10T16:10:24.576Z,52.00
2022-08-10T16:12:32.561Z,50.40
2022-08-10T16:15:07.887Z,49.90
2022-08-10T16:17:54.464Z,50.80
2022-08-10T16:20:31.079Z,52.40
2022-08-10T16:23:01.484Z,49.50
2022-08-10T16:25:48.444Z,49.20
2022-08-10T16:28:23.058Z,50.50
2022-08-10T16:30:54.181Z,48.40
2022-08-10T16:33:52.436Z,49.20
2022-08-10T16:36:17.653Z,48.70
2022-08-10T16:38:49.726Z,49.80
2022-08-10T16:42:00.558Z,50.40
2022-08-10T16:44:11.514Z,49.50
2022-08-10T16:46:45.223Z,51.00
2022-08-10T16:49:15.012Z,49.20
2022-08-10T16:51:48.260Z,49.20
2022-08-10T16:54:24.806Z,48.50
2022-08-10T16:57:03.640Z,49.00
2022-08-10T16:59:36.770Z,48.60
2022-08-10T17:02:05.825Z,49.20
2022-08-10T17:04:34.097Z,49.20
2022-08-10T17:07:08.299Z,49.50
2022-08-10T17:09:37.519Z,49.40
2022-08-10T17:12:13.554Z,49.40
2022-08-10T17:14:42.272Z,49.30
2022-08-10T17:17:19.667Z,49.70
2022-08-10T17:19:46.692Z,49.90
2022-08-10T17:22:26.390Z,50.70
2022-08-10T17:25:02.123Z,50.80
2022-08-10T17:28:05.292Z,51.80
2022-08-10T17:30:33.814Z,51.00
2022-08-10T17:33:12.414Z,50.70
2022-08-10T17:35:44.025Z,52.00
2022-08-10T17:38:17.714Z,51.20
2022-08-10T17:41:11.675Z,51.70
2022-08-10T17:43:59.327Z,51.30
2022-08-10T17:46:32.639Z,52.70
2022-08-10T17:49:05.018Z,52.30
2022-08-10T17:51:33.911Z,53.00
2022-08-10T17:54:04.317Z,51.90
2022-08-10T17:56:33.659Z,52.00
2022-08-10T17:59:14.473Z,52.40
2022-08-10T18:01:58.680Z,52.40
2022-08-10T18:04:41.607Z,52.20
2022-08-10T18:07:10.939Z,52.80
2022-08-10T18:09:53.726Z,53.00
2022-08-10T18:12:32.440Z,53.60
2022-08-10T18:15:13.170Z,53.60
2022-08-10T18:17:44.798Z,53.90
2022-08-10T18:20:14.475Z,54.10
2022-08-10T18:22:50.031Z,55.00
2022-08-10T18:25:27.563Z,55.20
2022-08-10T18:28:04.498Z,55.50
2022-08-10T18:30:45.154Z,55.70
2022-08-10T18:33:14.236Z,56.00
2022-08-10T18:35:43.747Z,57.00
2022-08-10T18:38:12.717Z,56.50
2022-08-10T18:40:44.786Z,56.80
2022-08-10T18:44:06.977Z,57.10
2022-08-10T18:46:05.815Z,57.20
2022-08-10T18:48:46.344Z,58.00
2022-08-10T18:51:14.294Z,58.30
2022-08-10T18:53:50.571Z,58.00
2022-08-10T18:56:36.338Z,58.60
2022-08-10T18:59:21.547Z,58.70
2022-08-10T19:02:26.244Z,59.40
2022-08-10T19:05:06.639Z,59.50
2022-08-10T19:08:30.879Z,59.80
2022-08-10T19:11:36.097Z,60.10
2022-08-10T19:14:17.962Z,60.40
2022-08-10T19:17:15.802Z,60.50
2022-08-10T19:20:03.952Z,60.60
2022-08-10T19:22:46.791Z,60.70
2022-08-10T19:25:19.640Z,60.70
2022-08-10T19:28:10.688Z,60.70
2022-08-10T19:30:49.775Z,60.80
2022-08-10T19:33:31.201Z,60.80
2022-08-10T19:36:06.307Z,61.10
2022-08-10T19:38:49.576Z,61.20
2022-08-10T19:41:32.432Z,61.50
2022-08-10T19:44:29.487Z,61.60
2022-08-10T19:46:59.081Z,61.80
2022-08-10T19:49:42.951Z,61.80
2022-08-10T19:52:34.234Z,62.00
2022-08-10T19:55:22.514Z,62.00
2022-08-10T19:58:16.900Z,62.20
2022-08-10T20:01:05.727Z,62.40
2022-08-10T20:03:41.481Z,62.30
2022-08-10T20:07:04.015Z,62.30
2022-08-10T20:10:00.486Z,62.30
2022-08-10T20:12:45.738Z,62.30
2022-08-10T20:15:29.639Z,62.40
2022-08-10T20:18:12.959Z,62.40
2022-08-10T20:21:08.248Z,62.40
2022-08-10T20:23:36.726Z,62.60
2022-08-10T20:26:28.368Z,62.70
2022-08-10T20:29:09.008Z,62.70
2022-08-10T20:31:43.524Z,62.80
2022-08-10T20:34:22.649Z,63.10
2022-08-10T20:36:52.163Z,63.60
2022-08-10T20:39:40.614Z,63.80
2022-08-10T20:42:25.797Z,64.10
2022-08-10T20:45:08.957Z,64.50
2022-08-10T20:47:57.517Z,64.80
2022-08-10T20:50:37.566Z,64.80
2022-08-10T20:53:14.720Z,65.10
2022-08-10T20:55:52.627Z,65.40
2022-08-10T20:58:47.051Z,65.90
2022-08-10T21:01:16.921Z,66.20
2022-08-10T21:04:18.724Z,66.50
2022-08-10T21:07:24.909Z,67.20
2022-08-10T21:10:13.310Z,67.80
2022-08-10T21:12:43.011Z,68.30
2022-08-10T21:15:12.813Z,68.80
2022-08-10T21:18:01.186Z,69.10
2022-08-10T21:20:53.868Z,69.30
2022-08-10T21:23:30.604Z,69.30
2022-08-10T21:26:09.937Z,69.50
2022-08-10T21:28:50.064Z,69.40
2022-08-10T21:31:46.551Z,68.80
2022-08-10T21:34:32.645Z,68.40
2022-08-10T21:37:39.719Z,68.40
2022-08-10T21:41:17.962Z,68.50
2022-08-10T21:44:21.285Z,68.60
2022-08-10T21:50:43.611Z,69.50
2022-08-10T21:53:47.967Z,69.80
2022-08-10T21:56:33.394Z,70.00
2022-08-10T21:59:34.889Z,70.20
2022-08-10T22:02:28.281Z,70.80
2022-08-10T22:05:21.288Z,71.00
2022-08-10T22:08:12.054Z,71.10
2022-08-10T22:11:13.855Z,71.70
2022-08-10T22:14:09.518Z,72.10
2022-08-10T22:18:00.266Z,72.60
2022-08-10T22:20:39.826Z,72.60
2022-08-10T22:23:40.069Z,73.20
2022-08-10T22:27:00.803Z,73.60
2022-08-10T22:29:57.432Z,73.80
2022-08-10T22:31:27.811Z,68.80
2022-08-10T22:32:57.876Z,73.70
2022-08-10T22:36:11.627Z,73.80
2022-08-10T22:39:08.936Z,73.80
2022-08-10T22:42:31.960Z,74.00
2022-08-10T22:45:38.583Z,74.20
2022-08-10T22:48:25.804Z,74.30
2022-08-10T22:50:59.868Z,74.60
2022-08-10T22:54:02.320Z,74.80
2022-08-10T22:56:47.923Z,74.80
2022-08-10T22:59:29.029Z,75.20
2022-08-10T23:02:08.538Z,75.50
2022-08-10T23:04:50.725Z,75.70
2022-08-10T23:07:17.462Z,76.10
2022-08-10T23:09:55.878Z,76.00
2022-08-10T23:12:37.533Z,76.00
2022-08-10T23:15:26.403Z,76.10
2022-08-10T23:18:14.474Z,76.50
2022-08-10T23:20:43.056Z,76.50
2022-08-10T23:23:23.465Z,76.70
2022-08-10T23:25:57.061Z,76.80
2022-08-10T23:28:58.630Z,77.10
2022-08-10T23:31:14.712Z,77.10
2022-08-10T23:33:42.836Z,77.30
2022-08-10T23:36:33.569Z,77.20
2022-08-10T23:39:26.038Z,77.40
2022-08-10T23:42:06.421Z,77.60
2022-08-10T23:44:43.092Z,77.90
2022-08-10T23:47:13.940Z,77.80
2022-08-10T23:49:43.186Z,78.10
2022-08-10T23:52:21.063Z,78.20
2022-08-10T23:55:09.930Z,78.30
2022-08-10T23:57:42.075Z,78.50
